sensor_id;sensor_type;location;lat;lon;timestamp;P1;durP1;ratioP1;P2;durP2;ratioP2
14760;SDS011;7472;45.396;5.272;2024-03-23T00:55:01;10.18;;;6.70;;
14760;SDS011;7472;45.396;5.272;2024-03-23T00:57:27;9.15;;;6.05;;
14760;SDS011;7472;45.396;5.272;2024-03-23T00:59:54;9.23;;;6.28;;
14760;SDS011;7472;45.396;5.272;2024-03-23T01:02:21;10.25;;;6.55;;
14760;SDS011;7472;45.396;5.272;2024-03-23T01:04:49;11.25;;;6.60;;
14760;SDS011;7472;45.396;5.272;2024-03-23T01:07:16;9.98;;;6.88;;
14760;SDS011;7472;45.396;5.272;2024-03-23T01:09:43;10.55;;;6.90;;
14760;SDS011;7472;45.396;5.272;2024-03-23T01:12:10;9.75;;;7.00;;
14760;SDS011;7472;45.396;5.272;2024-03-23T01:14:37;9.63;;;6.93;;
14760;SDS011;7472;45.396;5.272;2024-03-23T01:17:03;12.80;;;7.57;;
14760;SDS011;7472;45.396;5.272;2024-03-23T01:19:31;8.48;;;6.72;;
14760;SDS011;7472;45.396;5.272;2024-03-23T01:21:59;9.43;;;7.25;;
14760;SDS011;7472;45.396;5.272;2024-03-23T01:24:26;14.55;;;7.63;;
14760;SDS011;7472;45.396;5.272;2024-03-23T01:26:52;12.32;;;7.40;;
14760;SDS011;7472;45.396;5.272;2024-03-23T01:29:20;12.48;;;7.80;;
14760;SDS011;7472;45.396;5.272;2024-03-23T01:31:46;8.88;;;7.68;;
14760;SDS011;7472;45.396;5.272;2024-03-23T01:34:14;12.80;;;8.15;;
14760;SDS011;7472;45.396;5.272;2024-03-23T01:36:40;9.75;;;7.88;;
14760;SDS011;7472;45.396;5.272;2024-03-23T01:39:09;11.63;;;8.48;;
14760;SDS011;7472;45.396;5.272;2024-03-23T01:41:35;12.43;;;8.63;;
14760;SDS011;7472;45.396;5.272;2024-03-23T01:44:05;10.75;;;7.43;;
14760;SDS011;7472;45.396;5.272;2024-03-23T01:46:32;10.43;;;7.32;;
14760;SDS011;7472;45.396;5.272;2024-03-23T01:49:00;8.77;;;7.65;;
14760;SDS011;7472;45.396;5.272;2024-03-23T01:51:26;13.80;;;7.40;;
14760;SDS011;7472;45.396;5.272;2024-03-23T01:53:54;8.90;;;7.10;;
14760;SDS011;7472;45.396;5.272;2024-03-23T01:56:22;11.13;;;7.60;;
14760;SDS011;7472;45.396;5.272;2024-03-23T01:58:49;9.20;;;7.50;;
14760;SDS011;7472;45.396;5.272;2024-03-23T02:01:16;10.82;;;7.47;;
14760;SDS011;7472;45.396;5.272;2024-03-23T02:03:44;12.52;;;8.35;;
14760;SDS011;7472;45.396;5.272;2024-03-23T02:06:10;11.75;;;7.82;;
14760;SDS011;7472;45.396;5.272;2024-03-23T02:08:38;10.35;;;7.75;;
14760;SDS011;7472;45.396;5.272;2024-03-23T02:11:05;9.18;;;7.30;;
14760;SDS011;7472;45.396;5.272;2024-03-23T02:13:34;10.80;;;7.75;;
14760;SDS011;7472;45.396;5.272;2024-03-23T02:16:00;12.88;;;8.02;;
14760;SDS011;7472;45.396;5.272;2024-03-23T02:18:27;8.73;;;6.82;;
14760;SDS011;7472;45.396;5.272;2024-03-23T02:20:54;13.02;;;8.23;;
14760;SDS011;7472;45.396;5.272;2024-03-23T02:23:23;13.85;;;8.05;;
14760;SDS011;7472;45.396;5.272;2024-03-23T02:25:49;10.25;;;7.85;;
14760;SDS011;7472;45.396;5.272;2024-03-23T02:28:18;11.98;;;8.05;;
14760;SDS011;7472;45.396;5.272;2024-03-23T02:30:44;8.77;;;6.82;;
14760;SDS011;7472;45.396;5.272;2024-03-23T02:33:12;9.23;;;7.35;;
14760;SDS011;7472;45.396;5.272;2024-03-23T02:35:38;10.27;;;8.02;;
14760;SDS011;7472;45.396;5.272;2024-03-23T02:38:05;10.90;;;7.13;;
14760;SDS011;7472;45.396;5.272;2024-03-23T02:40:33;10.80;;;9.05;;
14760;SDS011;7472;45.396;5.272;2024-03-23T02:43:02;8.38;;;7.32;;
14760;SDS011;7472;45.396;5.272;2024-03-23T02:45:28;12.65;;;7.95;;
14760;SDS011;7472;45.396;5.272;2024-03-23T02:47:56;11.43;;;7.10;;
14760;SDS011;7472;45.396;5.272;2024-03-23T02:50:22;10.77;;;7.28;;
14760;SDS011;7472;45.396;5.272;2024-03-23T02:52:49;9.18;;;7.68;;
14760;SDS011;7472;45.396;5.272;2024-03-23T02:55:16;9.13;;;6.88;;
14760;SDS011;7472;45.396;5.272;2024-03-23T02:57:45;9.68;;;7.15;;
14760;SDS011;7472;45.396;5.272;2024-03-23T03:00:11;8.88;;;7.28;;
14760;SDS011;7472;45.396;5.272;2024-03-23T03:02:39;11.65;;;7.60;;
14760;SDS011;7472;45.396;5.272;2024-03-23T03:05:05;13.82;;;7.57;;
14760;SDS011;7472;45.396;5.272;2024-03-23T03:07:34;9.20;;;6.45;;
14760;SDS011;7472;45.396;5.272;2024-03-23T03:10:00;11.90;;;8.10;;
14760;SDS011;7472;45.396;5.272;2024-03-23T03:12:28;7.95;;;6.68;;
14760;SDS011;7472;45.396;5.272;2024-03-23T03:14:56;13.05;;;7.78;;
14760;SDS011;7472;45.396;5.272;2024-03-23T03:17:24;10.35;;;7.88;;
14760;SDS011;7472;45.396;5.272;2024-03-23T03:19:50;10.48;;;7.57;;
14760;SDS011;7472;45.396;5.272;2024-03-23T03:22:20;11.07;;;7.85;;
14760;SDS011;7472;45.396;5.272;2024-03-23T03:24:47;10.77;;;7.55;;
14760;SDS011;7472;45.396;5.272;2024-03-23T03:27:14;9.02;;;6.57;;
14760;SDS011;7472;45.396;5.272;2024-03-23T03:29:41;11.75;;;7.45;;
14760;SDS011;7472;45.396;5.272;2024-03-23T03:32:09;8.20;;;7.05;;
14760;SDS011;7472;45.396;5.272;2024-03-23T03:34:36;8.90;;;8.00;;
14760;SDS011;7472;45.396;5.272;2024-03-23T03:37:04;7.25;;;6.50;;
14760;SDS011;7472;45.396;5.272;2024-03-23T03:39:30;10.48;;;7.43;;
14760;SDS011;7472;45.396;5.272;2024-03-23T03:41:58;10.32;;;6.60;;
14760;SDS011;7472;45.396;5.272;2024-03-23T03:44:25;8.55;;;6.88;;
14760;SDS011;7472;45.396;5.272;2024-03-23T03:46:53;9.88;;;6.68;;
14760;SDS011;7472;45.396;5.272;2024-03-23T03:49:20;8.50;;;6.93;;
14760;SDS011;7472;45.396;5.272;2024-03-23T03:51:48;9.05;;;7.05;;
14760;SDS011;7472;45.396;5.272;2024-03-23T03:54:14;13.10;;;7.70;;
14760;SDS011;7472;45.396;5.272;2024-03-23T03:56:42;9.80;;;7.10;;
14760;SDS011;7472;45.396;5.272;2024-03-23T03:59:08;12.00;;;7.90;;
14760;SDS011;7472;45.396;5.272;2024-03-23T04:01:36;9.27;;;7.30;;
14760;SDS011;7472;45.396;5.272;2024-03-23T04:04:02;10.20;;;7.05;;
14760;SDS011;7472;45.396;5.272;2024-03-23T04:06:31;8.55;;;7.25;;
14760;SDS011;7472;45.396;5.272;2024-03-23T04:08:58;11.02;;;7.80;;
14760;SDS011;7472;45.396;5.272;2024-03-23T04:11:25;11.00;;;8.15;;
14760;SDS011;7472;45.396;5.272;2024-03-23T04:13:52;11.25;;;7.50;;
14760;SDS011;7472;45.396;5.272;2024-03-23T04:16:26;10.50;;;7.95;;
14760;SDS011;7472;45.396;5.272;2024-03-23T04:18:53;12.38;;;8.85;;
14760;SDS011;7472;45.396;5.272;2024-03-23T04:21:21;10.23;;;8.18;;
14760;SDS011;7472;45.396;5.272;2024-03-23T04:23:49;11.52;;;8.93;;
14760;SDS011;7472;45.396;5.272;2024-03-23T04:26:16;10.95;;;8.45;;
14760;SDS011;7472;45.396;5.272;2024-03-23T04:28:43;12.60;;;9.27;;
14760;SDS011;7472;45.396;5.272;2024-03-23T04:31:10;12.88;;;8.73;;
14760;SDS011;7472;45.396;5.272;2024-03-23T04:33:37;12.30;;;9.32;;
14760;SDS011;7472;45.396;5.272;2024-03-23T04:36:04;10.70;;;8.98;;
14760;SDS011;7472;45.396;5.272;2024-03-23T04:38:32;12.88;;;8.77;;
14760;SDS011;7472;45.396;5.272;2024-03-23T04:41:01;10.30;;;9.15;;
14760;SDS011;7472;45.396;5.272;2024-03-23T04:43:29;11.82;;;9.75;;
14760;SDS011;7472;45.396;5.272;2024-03-23T04:45:56;14.10;;;10.07;;
14760;SDS011;7472;45.396;5.272;2024-03-23T04:48:23;13.25;;;10.35;;
14760;SDS011;7472;45.396;5.272;2024-03-23T04:50:54;13.32;;;10.07;;
14760;SDS011;7472;45.396;5.272;2024-03-23T04:53:22;12.02;;;9.68;;
14760;SDS011;7472;45.396;5.272;2024-03-23T04:55:53;14.40;;;10.00;;
14760;SDS011;7472;45.396;5.272;2024-03-23T04:58:22;12.27;;;9.27;;
14760;SDS011;7472;45.396;5.272;2024-03-23T05:00:52;17.10;;;11.15;;
14760;SDS011;7472;45.396;5.272;2024-03-23T05:03:20;13.07;;;10.88;;
14760;SDS011;7472;45.396;5.272;2024-03-23T05:05:47;16.35;;;10.80;;
14760;SDS011;7472;45.396;5.272;2024-03-23T05:08:14;15.80;;;11.10;;
14760;SDS011;7472;45.396;5.272;2024-03-23T05:10:41;15.57;;;11.40;;
14760;SDS011;7472;45.396;5.272;2024-03-23T05:13:08;22.13;;;11.23;;
14760;SDS011;7472;45.396;5.272;2024-03-23T05:15:36;12.73;;;10.63;;
14760;SDS011;7472;45.396;5.272;2024-03-23T05:18:04;16.65;;;10.57;;
14760;SDS011;7472;45.396;5.272;2024-03-23T05:20:30;17.52;;;11.65;;
14760;SDS011;7472;45.396;5.272;2024-03-23T05:22:58;14.52;;;10.40;;
14760;SDS011;7472;45.396;5.272;2024-03-23T05:25:24;12.50;;;10.23;;
14760;SDS011;7472;45.396;5.272;2024-03-23T05:27:52;13.98;;;10.65;;
14760;SDS011;7472;45.396;5.272;2024-03-23T05:30:18;21.38;;;11.23;;
14760;SDS011;7472;45.396;5.272;2024-03-23T05:32:47;12.45;;;11.00;;
14760;SDS011;7472;45.396;5.272;2024-03-23T05:35:13;15.90;;;10.75;;
14760;SDS011;7472;45.396;5.272;2024-03-23T05:37:41;15.50;;;10.73;;
14760;SDS011;7472;45.396;5.272;2024-03-23T05:40:07;13.25;;;11.10;;
14760;SDS011;7472;45.396;5.272;2024-03-23T05:42:35;12.98;;;10.57;;
14760;SDS011;7472;45.396;5.272;2024-03-23T05:45:01;18.20;;;10.82;;
14760;SDS011;7472;45.396;5.272;2024-03-23T05:47:31;12.73;;;9.40;;
14760;SDS011;7472;45.396;5.272;2024-03-23T05:49:59;13.80;;;10.60;;
14760;SDS011;7472;45.396;5.272;2024-03-23T05:52:27;13.25;;;10.52;;
14760;SDS011;7472;45.396;5.272;2024-03-23T05:54:54;10.50;;;9.38;;
14760;SDS011;7472;45.396;5.272;2024-03-23T05:57:23;10.93;;;9.40;;
14760;SDS011;7472;45.396;5.272;2024-03-23T05:59:51;16.08;;;9.00;;
14760;SDS011;7472;45.396;5.272;2024-03-23T06:02:18;11.07;;;7.88;;
14760;SDS011;7472;45.396;5.272;2024-03-23T06:04:45;15.93;;;10.05;;
14760;SDS011;7472;45.396;5.272;2024-03-23T06:07:14;11.50;;;7.82;;
14760;SDS011;7472;45.396;5.272;2024-03-23T06:09:40;11.63;;;9.75;;
14760;SDS011;7472;45.396;5.272;2024-03-23T06:12:07;12.35;;;9.48;;
14760;SDS011;7472;45.396;5.272;2024-03-23T06:14:34;12.23;;;9.52;;
14760;SDS011;7472;45.396;5.272;2024-03-23T06:17:01;10.88;;;8.63;;
14760;SDS011;7472;45.396;5.272;2024-03-23T06:19:28;12.40;;;9.10;;
14760;SDS011;7472;45.396;5.272;2024-03-23T06:21:55;11.60;;;9.00;;
14760;SDS011;7472;45.396;5.272;2024-03-23T06:24:23;11.10;;;8.15;;
14760;SDS011;7472;45.396;5.272;2024-03-23T06:26:50;10.35;;;8.20;;
14760;SDS011;7472;45.396;5.272;2024-03-23T06:29:17;10.18;;;8.45;;
14760;SDS011;7472;45.396;5.272;2024-03-23T06:31:44;11.90;;;7.97;;
14760;SDS011;7472;45.396;5.272;2024-03-23T06:34:18;8.73;;;6.78;;
14760;SDS011;7472;45.396;5.272;2024-03-23T06:36:46;9.50;;;7.18;;
14760;SDS011;7472;45.396;5.272;2024-03-23T06:39:13;9.07;;;7.03;;
14760;SDS011;7472;45.396;5.272;2024-03-23T06:41:42;8.23;;;7.22;;
14760;SDS011;7472;45.396;5.272;2024-03-23T06:44:08;7.05;;;6.25;;
14760;SDS011;7472;45.396;5.272;2024-03-23T06:46:36;12.40;;;7.00;;
14760;SDS011;7472;45.396;5.272;2024-03-23T06:49:02;8.98;;;7.00;;
14760;SDS011;7472;45.396;5.272;2024-03-23T06:51:29;7.18;;;6.47;;
14760;SDS011;7472;45.396;5.272;2024-03-23T06:53:56;9.32;;;6.72;;
14760;SDS011;7472;45.396;5.272;2024-03-23T06:56:23;8.70;;;6.53;;
14760;SDS011;7472;45.396;5.272;2024-03-23T06:58:51;7.57;;;6.68;;
14760;SDS011;7472;45.396;5.272;2024-03-23T07:01:18;7.75;;;6.30;;
14760;SDS011;7472;45.396;5.272;2024-03-23T07:03:45;12.07;;;6.70;;
14760;SDS011;7472;45.396;5.272;2024-03-23T07:06:12;7.90;;;6.70;;
14760;SDS011;7472;45.396;5.272;2024-03-23T07:08:38;8.27;;;7.22;;
14760;SDS011;7472;45.396;5.272;2024-03-23T07:11:06;8.65;;;6.85;;
14760;SDS011;7472;45.396;5.272;2024-03-23T07:13:32;9.80;;;7.38;;
14760;SDS011;7472;45.396;5.272;2024-03-23T07:16:01;7.88;;;7.13;;
14760;SDS011;7472;45.396;5.272;2024-03-23T07:18:29;8.18;;;6.90;;
14760;SDS011;7472;45.396;5.272;2024-03-23T07:20:56;9.57;;;7.10;;
14760;SDS011;7472;45.396;5.272;2024-03-23T07:23:23;7.88;;;6.38;;
14760;SDS011;7472;45.396;5.272;2024-03-23T07:25:57;9.52;;;7.28;;
14760;SDS011;7472;45.396;5.272;2024-03-23T07:28:23;8.80;;;7.93;;
14760;SDS011;7472;45.396;5.272;2024-03-23T07:31:02;7.15;;;4.85;;
14760;SDS011;7472;45.396;5.272;2024-03-23T07:33:29;5.03;;;4.18;;
14760;SDS011;7472;45.396;5.272;2024-03-23T07:35:56;7.88;;;4.95;;
14760;SDS011;7472;45.396;5.272;2024-03-23T07:38:24;6.30;;;3.92;;
14760;SDS011;7472;45.396;5.272;2024-03-23T07:40:51;4.25;;;3.33;;
14760;SDS011;7472;45.396;5.272;2024-03-23T07:43:21;2.58;;;2.13;;
14760;SDS011;7472;45.396;5.272;2024-03-23T07:45:51;3.70;;;1.70;;
14760;SDS011;7472;45.396;5.272;2024-03-23T07:48:21;3.63;;;1.13;;
14760;SDS011;7472;45.396;5.272;2024-03-23T07:50:55;1.55;;;0.90;;
14760;SDS011;7472;45.396;5.272;2024-03-23T07:53:23;2.42;;;0.73;;
14760;SDS011;7472;45.396;5.272;2024-03-23T07:55:52;5.50;;;0.80;;
14760;SDS011;7472;45.396;5.272;2024-03-23T07:58:19;2.00;;;1.08;;
14760;SDS011;7472;45.396;5.272;2024-03-23T08:00:46;1.27;;;0.52;;
14760;SDS011;7472;45.396;5.272;2024-03-23T08:03:13;2.03;;;0.47;;
14760;SDS011;7472;45.396;5.272;2024-03-23T08:05:41;2.25;;;0.75;;
14760;SDS011;7472;45.396;5.272;2024-03-23T08:08:08;7.30;;;1.20;;
14760;SDS011;7472;45.396;5.272;2024-03-23T08:10:36;6.95;;;1.70;;
14760;SDS011;7472;45.396;5.272;2024-03-23T08:13:03;4.05;;;0.90;;
14760;SDS011;7472;45.396;5.272;2024-03-23T08:15:31;4.78;;;1.33;;
14760;SDS011;7472;45.396;5.272;2024-03-23T08:17:59;5.20;;;1.48;;
14760;SDS011;7472;45.396;5.272;2024-03-23T08:20:26;5.97;;;1.40;;
14760;SDS011;7472;45.396;5.272;2024-03-23T08:22:55;4.50;;;1.17;;
14760;SDS011;7472;45.396;5.272;2024-03-23T08:25:21;5.53;;;1.17;;
14760;SDS011;7472;45.396;5.272;2024-03-23T08:27:48;6.28;;;2.47;;
14760;SDS011;7472;45.396;5.272;2024-03-23T08:30:15;4.70;;;1.52;;
14760;SDS011;7472;45.396;5.272;2024-03-23T08:32:42;7.47;;;2.50;;
14760;SDS011;7472;45.396;5.272;2024-03-23T08:35:08;8.27;;;1.85;;
14760;SDS011;7472;45.396;5.272;2024-03-23T08:37:36;5.15;;;1.55;;
14760;SDS011;7472;45.396;5.272;2024-03-23T08:40:05;2.70;;;1.00;;
14760;SDS011;7472;45.396;5.272;2024-03-23T08:42:33;6.25;;;2.38;;
14760;SDS011;7472;45.396;5.272;2024-03-23T08:45:00;5.50;;;1.90;;
14760;SDS011;7472;45.396;5.272;2024-03-23T08:47:27;7.38;;;1.45;;
14760;SDS011;7472;45.396;5.272;2024-03-23T08:49:54;5.00;;;1.90;;
14760;SDS011;7472;45.396;5.272;2024-03-23T08:52:22;4.07;;;1.40;;
14760;SDS011;7472;45.396;5.272;2024-03-23T08:54:52;7.25;;;1.55;;
14760;SDS011;7472;45.396;5.272;2024-03-23T08:57:20;10.30;;;1.85;;
14760;SDS011;7472;45.396;5.272;2024-03-23T08:59:47;8.48;;;1.77;;
14760;SDS011;7472;45.396;5.272;2024-03-23T09:02:13;4.90;;;1.67;;
14760;SDS011;7472;45.396;5.272;2024-03-23T09:04:41;10.73;;;1.90;;
14760;SDS011;7472;45.396;5.272;2024-03-23T09:07:07;3.80;;;1.40;;
14760;SDS011;7472;45.396;5.272;2024-03-23T09:09:35;6.35;;;1.42;;
14760;SDS011;7472;45.396;5.272;2024-03-23T09:12:03;5.53;;;1.27;;
14760;SDS011;7472;45.396;5.272;2024-03-23T09:14:32;7.30;;;2.25;;
14760;SDS011;7472;45.396;5.272;2024-03-23T09:16:59;5.93;;;1.90;;
14760;SDS011;7472;45.396;5.272;2024-03-23T09:19:27;5.57;;;1.40;;
14760;SDS011;7472;45.396;5.272;2024-03-23T09:21:53;5.65;;;1.13;;
14760;SDS011;7472;45.396;5.272;2024-03-23T09:24:20;7.45;;;1.67;;
14760;SDS011;7472;45.396;5.272;2024-03-23T09:32:20;5.30;;;1.92;;
14760;SDS011;7472;45.396;5.272;2024-03-23T09:34:46;2.15;;;0.93;;
14760;SDS011;7472;45.396;5.272;2024-03-23T09:37:14;5.72;;;1.73;;
14760;SDS011;7472;45.396;5.272;2024-03-23T09:39:40;5.15;;;1.92;;
14760;SDS011;7472;45.396;5.272;2024-03-23T09:42:08;6.28;;;1.67;;
14760;SDS011;7472;45.396;5.272;2024-03-23T09:44:35;1.77;;;0.68;;
14760;SDS011;7472;45.396;5.272;2024-03-23T09:47:02;7.47;;;1.40;;
14760;SDS011;7472;45.396;5.272;2024-03-23T09:49:31;3.83;;;1.25;;
14760;SDS011;7472;45.396;5.272;2024-03-23T09:52:01;7.63;;;1.65;;
14760;SDS011;7472;45.396;5.272;2024-03-23T09:54:28;5.22;;;1.48;;
14760;SDS011;7472;45.396;5.272;2024-03-23T09:56:55;6.85;;;1.70;;
14760;SDS011;7472;45.396;5.272;2024-03-23T09:59:21;7.63;;;1.98;;
14760;SDS011;7472;45.396;5.272;2024-03-23T10:01:51;3.20;;;1.58;;
14760;SDS011;7472;45.396;5.272;2024-03-23T10:04:38;8.98;;;1.65;;
14760;SDS011;7472;45.396;5.272;2024-03-23T10:07:10;4.00;;;1.23;;
14760;SDS011;7472;45.396;5.272;2024-03-23T10:09:37;4.13;;;1.58;;
14760;SDS011;7472;45.396;5.272;2024-03-23T10:12:08;5.57;;;1.45;;
14760;SDS011;7472;45.396;5.272;2024-03-23T10:14:34;4.35;;;1.40;;
14760;SDS011;7472;45.396;5.272;2024-03-23T10:17:14;3.85;;;1.95;;
14760;SDS011;7472;45.396;5.272;2024-03-23T10:19:44;1.42;;;0.65;;
14760;SDS011;7472;45.396;5.272;2024-03-23T10:22:13;3.90;;;1.00;;
14760;SDS011;7472;45.396;5.272;2024-03-23T10:24:40;6.20;;;2.03;;
14760;SDS011;7472;45.396;5.272;2024-03-23T10:27:07;7.10;;;2.22;;
14760;SDS011;7472;45.396;5.272;2024-03-23T10:29:33;6.75;;;1.98;;
14760;SDS011;7472;45.396;5.272;2024-03-23T10:32:07;7.30;;;1.80;;
14760;SDS011;7472;45.396;5.272;2024-03-23T10:34:34;7.97;;;1.67;;
14760;SDS011;7472;45.396;5.272;2024-03-23T10:37:03;4.65;;;1.15;;
14760;SDS011;7472;45.396;5.272;2024-03-23T10:39:33;4.68;;;1.33;;
14760;SDS011;7472;45.396;5.272;2024-03-23T10:42:04;5.10;;;1.70;;
14760;SDS011;7472;45.396;5.272;2024-03-23T10:44:31;4.90;;;1.40;;
14760;SDS011;7472;45.396;5.272;2024-03-23T10:46:59;7.40;;;1.75;;
14760;SDS011;7472;45.396;5.272;2024-03-23T10:49:26;4.75;;;1.70;;
14760;SDS011;7472;45.396;5.272;2024-03-23T10:51:55;4.50;;;1.42;;
14760;SDS011;7472;45.396;5.272;2024-03-23T10:54:22;6.53;;;1.13;;
14760;SDS011;7472;45.396;5.272;2024-03-23T10:56:51;18.00;;;1.70;;
14760;SDS011;7472;45.396;5.272;2024-03-23T10:59:19;6.28;;;1.60;;
14760;SDS011;7472;45.396;5.272;2024-03-23T11:01:54;8.55;;;1.80;;
14760;SDS011;7472;45.396;5.272;2024-03-23T11:04:30;5.30;;;1.38;;
14760;SDS011;7472;45.396;5.272;2024-03-23T11:06:58;3.10;;;1.15;;
14760;SDS011;7472;45.396;5.272;2024-03-23T11:09:41;2.55;;;1.13;;
14760;SDS011;7472;45.396;5.272;2024-03-23T11:15:01;5.00;;;2.50;;
14760;SDS011;7472;45.396;5.272;2024-03-23T11:17:29;6.80;;;1.70;;
14760;SDS011;7472;45.396;5.272;2024-03-23T11:19:58;5.60;;;1.23;;
14760;SDS011;7472;45.396;5.272;2024-03-23T11:22:38;3.10;;;1.40;;
14760;SDS011;7472;45.396;5.272;2024-03-23T11:25:13;4.38;;;1.33;;
14760;SDS011;7472;45.396;5.272;2024-03-23T11:27:41;4.40;;;1.30;;
14760;SDS011;7472;45.396;5.272;2024-03-23T11:30:14;7.95;;;1.38;;
14760;SDS011;7472;45.396;5.272;2024-03-23T11:32:41;4.72;;;1.52;;
14760;SDS011;7472;45.396;5.272;2024-03-23T11:35:08;3.83;;;1.08;;
14760;SDS011;7472;45.396;5.272;2024-03-23T11:37:36;3.95;;;2.05;;
14760;SDS011;7472;45.396;5.272;2024-03-23T11:40:20;4.38;;;1.27;;
14760;SDS011;7472;45.396;5.272;2024-03-23T11:42:54;2.80;;;1.48;;
14760;SDS011;7472;45.396;5.272;2024-03-23T11:45:21;4.50;;;1.30;;
14760;SDS011;7472;45.396;5.272;2024-03-23T11:47:49;4.13;;;1.20;;
14760;SDS011;7472;45.396;5.272;2024-03-23T11:50:27;3.92;;;1.70;;
14760;SDS011;7472;45.396;5.272;2024-03-23T11:53:05;3.83;;;1.17;;
14760;SDS011;7472;45.396;5.272;2024-03-23T11:55:39;4.88;;;1.35;;
14760;SDS011;7472;45.396;5.272;2024-03-23T11:58:07;6.72;;;1.38;;
14760;SDS011;7472;45.396;5.272;2024-03-23T12:00:34;4.85;;;1.20;;
14760;SDS011;7472;45.396;5.272;2024-03-23T12:03:01;4.60;;;1.58;;
14760;SDS011;7472;45.396;5.272;2024-03-23T12:05:28;4.25;;;1.10;;
14760;SDS011;7472;45.396;5.272;2024-03-23T12:07:55;3.95;;;1.75;;
14760;SDS011;7472;45.396;5.272;2024-03-23T12:10:43;1.60;;;0.90;;
14760;SDS011;7472;45.396;5.272;2024-03-23T12:13:10;5.15;;;1.30;;
14760;SDS011;7472;45.396;5.272;2024-03-23T12:15:37;5.15;;;1.52;;
14760;SDS011;7472;45.396;5.272;2024-03-23T12:18:07;4.70;;;1.30;;
14760;SDS011;7472;45.396;5.272;2024-03-23T12:20:34;3.95;;;1.50;;
14760;SDS011;7472;45.396;5.272;2024-03-23T12:23:05;3.72;;;1.23;;
14760;SDS011;7472;45.396;5.272;2024-03-23T12:25:31;8.13;;;1.92;;
14760;SDS011;7472;45.396;5.272;2024-03-23T12:28:00;4.22;;;1.27;;
14760;SDS011;7472;45.396;5.272;2024-03-23T12:30:27;5.05;;;1.20;;
14760;SDS011;7472;45.396;5.272;2024-03-23T12:32:54;5.68;;;1.80;;
14760;SDS011;7472;45.396;5.272;2024-03-23T12:35:21;2.85;;;0.82;;
14760;SDS011;7472;45.396;5.272;2024-03-23T12:37:49;3.92;;;1.23;;
14760;SDS011;7472;45.396;5.272;2024-03-23T12:40:15;4.07;;;1.38;;
14760;SDS011;7472;45.396;5.272;2024-03-23T12:42:43;3.97;;;1.48;;
14760;SDS011;7472;45.396;5.272;2024-03-23T12:45:11;3.60;;;1.05;;
14760;SDS011;7472;45.396;5.272;2024-03-23T12:47:38;5.25;;;1.02;;
14760;SDS011;7472;45.396;5.272;2024-03-23T12:50:05;3.78;;;1.27;;
14760;SDS011;7472;45.396;5.272;2024-03-23T12:52:32;2.40;;;0.88;;
14760;SDS011;7472;45.396;5.272;2024-03-23T12:54:59;6.47;;;1.63;;
14760;SDS011;7472;45.396;5.272;2024-03-23T12:57:26;3.17;;;1.17;;
14760;SDS011;7472;45.396;5.272;2024-03-23T12:59:53;3.50;;;1.40;;
14760;SDS011;7472;45.396;5.272;2024-03-23T13:02:21;4.00;;;1.40;;
14760;SDS011;7472;45.396;5.272;2024-03-23T13:04:49;4.45;;;1.08;;
14760;SDS011;7472;45.396;5.272;2024-03-23T13:07:16;3.80;;;1.30;;
14760;SDS011;7472;45.396;5.272;2024-03-23T13:09:43;2.13;;;1.00;;
14760;SDS011;7472;45.396;5.272;2024-03-23T13:12:10;5.30;;;1.30;;
14760;SDS011;7472;45.396;5.272;2024-03-23T13:14:38;3.30;;;1.10;;
14760;SDS011;7472;45.396;5.272;2024-03-23T13:17:04;3.85;;;1.45;;
14760;SDS011;7472;45.396;5.272;2024-03-23T13:19:33;2.67;;;0.88;;
14760;SDS011;7472;45.396;5.272;2024-03-23T13:22:00;5.93;;;1.48;;
14760;SDS011;7472;45.396;5.272;2024-03-23T13:24:28;3.70;;;1.10;;
14760;SDS011;7472;45.396;5.272;2024-03-23T13:26:55;3.72;;;1.00;;
14760;SDS011;7472;45.396;5.272;2024-03-23T13:29:22;4.22;;;1.10;;
14760;SDS011;7472;45.396;5.272;2024-03-23T13:31:49;4.43;;;1.10;;
14760;SDS011;7472;45.396;5.272;2024-03-23T13:34:17;2.85;;;0.93;;
14760;SDS011;7472;45.396;5.272;2024-03-23T13:36:45;3.75;;;1.00;;
14760;SDS011;7472;45.396;5.272;2024-03-23T13:39:13;5.25;;;1.42;;
14760;SDS011;7472;45.396;5.272;2024-03-23T13:41:40;3.67;;;1.33;;
14760;SDS011;7472;45.396;5.272;2024-03-23T13:44:08;3.08;;;1.02;;
14760;SDS011;7472;45.396;5.272;2024-03-23T13:46:35;2.97;;;1.13;;
14760;SDS011;7472;45.396;5.272;2024-03-23T13:49:03;2.47;;;0.95;;
14760;SDS011;7472;45.396;5.272;2024-03-23T13:51:29;4.05;;;0.90;;
14760;SDS011;7472;45.396;5.272;2024-03-23T13:53:58;3.40;;;0.82;;
14760;SDS011;7472;45.396;5.272;2024-03-23T13:56:26;3.50;;;0.82;;
14760;SDS011;7472;45.396;5.272;2024-03-23T13:58:54;4.80;;;1.00;;
14760;SDS011;7472;45.396;5.272;2024-03-23T14:01:21;1.50;;;1.17;;
14760;SDS011;7472;45.396;5.272;2024-03-23T14:03:49;3.03;;;1.23;;
14760;SDS011;7472;45.396;5.272;2024-03-23T14:06:15;3.40;;;1.02;;
14760;SDS011;7472;45.396;5.272;2024-03-23T14:08:43;3.40;;;1.15;;
14760;SDS011;7472;45.396;5.272;2024-03-23T14:11:10;7.43;;;1.20;;
14760;SDS011;7472;45.396;5.272;2024-03-23T14:13:38;5.95;;;1.58;;
14760;SDS011;7472;45.396;5.272;2024-03-23T14:16:05;3.53;;;1.33;;
14760;SDS011;7472;45.396;5.272;2024-03-23T14:18:33;2.75;;;0.75;;
14760;SDS011;7472;45.396;5.272;2024-03-23T14:20:59;3.47;;;1.20;;
14760;SDS011;7472;45.396;5.272;2024-03-23T14:23:28;2.97;;;0.60;;
14760;SDS011;7472;45.396;5.272;2024-03-23T14:25:55;3.60;;;0.80;;
14760;SDS011;7472;45.396;5.272;2024-03-23T14:28:25;2.85;;;0.80;;
14760;SDS011;7472;45.396;5.272;2024-03-23T14:30:51;3.85;;;1.05;;
14760;SDS011;7472;45.396;5.272;2024-03-23T14:33:19;2.00;;;0.90;;
14760;SDS011;7472;45.396;5.272;2024-03-23T14:35:51;2.40;;;0.80;;
14760;SDS011;7472;45.396;5.272;2024-03-23T14:38:19;1.85;;;0.80;;
14760;SDS011;7472;45.396;5.272;2024-03-23T14:40:46;4.07;;;1.30;;
14760;SDS011;7472;45.396;5.272;2024-03-23T14:43:14;2.65;;;0.50;;
14760;SDS011;7472;45.396;5.272;2024-03-23T14:45:45;2.25;;;0.82;;
14760;SDS011;7472;45.396;5.272;2024-03-23T14:48:30;3.65;;;1.20;;
14760;SDS011;7472;45.396;5.272;2024-03-23T14:50:57;2.80;;;1.05;;
14760;SDS011;7472;45.396;5.272;2024-03-23T14:53:25;2.42;;;0.70;;
14760;SDS011;7472;45.396;5.272;2024-03-23T14:55:54;4.40;;;1.20;;
14760;SDS011;7472;45.396;5.272;2024-03-23T14:58:22;3.65;;;0.93;;
14760;SDS011;7472;45.396;5.272;2024-03-23T15:00:51;5.72;;;1.58;;
14760;SDS011;7472;45.396;5.272;2024-03-23T15:03:18;2.03;;;0.93;;
14760;SDS011;7472;45.396;5.272;2024-03-23T15:05:51;3.97;;;1.20;;
14760;SDS011;7472;45.396;5.272;2024-03-23T15:08:19;4.53;;;1.15;;
14760;SDS011;7472;45.396;5.272;2024-03-23T15:10:45;2.58;;;1.10;;
14760;SDS011;7472;45.396;5.272;2024-03-23T15:13:12;2.83;;;1.08;;
14760;SDS011;7472;45.396;5.272;2024-03-23T15:15:39;2.40;;;1.10;;
14760;SDS011;7472;45.396;5.272;2024-03-23T15:18:10;3.58;;;1.40;;
14760;SDS011;7472;45.396;5.272;2024-03-23T15:20:38;3.45;;;1.52;;
14760;SDS011;7472;45.396;5.272;2024-03-23T15:23:05;5.38;;;1.35;;
14760;SDS011;7472;45.396;5.272;2024-03-23T15:25:31;4.68;;;0.93;;
14760;SDS011;7472;45.396;5.272;2024-03-23T15:27:59;3.60;;;1.25;;
14760;SDS011;7472;45.396;5.272;2024-03-23T15:30:25;3.00;;;1.20;;
14760;SDS011;7472;45.396;5.272;2024-03-23T15:32:53;4.40;;;1.35;;
14760;SDS011;7472;45.396;5.272;2024-03-23T15:35:21;5.20;;;1.25;;
14760;SDS011;7472;45.396;5.272;2024-03-23T15:37:49;3.97;;;0.93;;
14760;SDS011;7472;45.396;5.272;2024-03-23T15:40:16;4.13;;;1.48;;
14760;SDS011;7472;45.396;5.272;2024-03-23T15:42:43;3.00;;;0.93;;
14760;SDS011;7472;45.396;5.272;2024-03-23T15:45:10;6.47;;;1.30;;
14760;SDS011;7472;45.396;5.272;2024-03-23T15:47:37;3.47;;;1.08;;
14760;SDS011;7472;45.396;5.272;2024-03-23T15:50:04;3.80;;;1.08;;
14760;SDS011;7472;45.396;5.272;2024-03-23T15:52:35;3.08;;;1.35;;
14760;SDS011;7472;45.396;5.272;2024-03-23T15:55:02;6.30;;;1.15;;
14760;SDS011;7472;45.396;5.272;2024-03-23T15:57:32;2.88;;;1.02;;
14760;SDS011;7472;45.396;5.272;2024-03-23T15:59:58;3.10;;;0.80;;
14760;SDS011;7472;45.396;5.272;2024-03-23T16:02:26;5.20;;;1.42;;